sensor_id;sensor_type;location;lat;lon;timestamp;P1;durP1;ratioP1;P2;durP2;ratioP2
59306;SDS011;47983;53.016;-2.260;2023-02-15T00:00:09;77.03;;;33.03;;
59306;SDS011;47983;53.016;-2.260;2023-02-15T00:02:40;90.03;;;36.92;;
59306;SDS011;47983;53.016;-2.260;2023-02-15T00:05:07;76.65;;;31.42;;
59306;SDS011;47983;53.016;-2.260;2023-02-15T00:07:35;68.40;;;28.05;;
59306;SDS011;47983;53.016;-2.260;2023-02-15T00:10:03;62.50;;;27.40;;
59306;SDS011;47983;53.016;-2.260;2023-02-15T00:12:32;58.85;;;26.42;;
59306;SDS011;47983;53.016;-2.260;2023-02-15T00:15:00;60.53;;;27.25;;
59306;SDS011;47983;53.016;-2.260;2023-02-15T00:17:28;56.22;;;25.90;;
59306;SDS011;47983;53.016;-2.260;2023-02-15T00:19:56;56.20;;;23.70;;
59306;SDS011;47983;53.016;-2.260;2023-02-15T00:22:25;52.95;;;24.30;;
59306;SDS011;47983;53.016;-2.260;2023-02-15T00:24:52;55.10;;;26.15;;
59306;SDS011;47983;53.016;-2.260;2023-02-15T00:27:20;52.05;;;24.52;;
59306;SDS011;47983;53.016;-2.260;2023-02-15T00:29:48;55.50;;;25.17;;
59306;SDS011;47983;53.016;-2.260;2023-02-15T00:32:15;55.28;;;24.75;;
59306;SDS011;47983;53.016;-2.260;2023-02-15T00:34:43;59.42;;;26.23;;
59306;SDS011;47983;53.016;-2.260;2023-02-15T00:37:10;59.05;;;24.63;;
59306;SDS011;47983;53.016;-2.260;2023-02-15T00:39:38;56.85;;;25.17;;
59306;SDS011;47983;53.016;-2.260;2023-02-15T00:42:06;62.83;;;26.08;;
59306;SDS011;47983;53.016;-2.260;2023-02-15T00:44:33;57.58;;;26.45;;
59306;SDS011;47983;53.016;-2.260;2023-02-15T00:47:01;60.17;;;27.67;;
59306;SDS011;47983;53.016;-2.260;2023-02-15T00:49:29;60.33;;;25.88;;
59306;SDS011;47983;53.016;-2.260;2023-02-15T00:51:56;62.05;;;27.10;;
59306;SDS011;47983;53.016;-2.260;2023-02-15T00:54:24;65.05;;;28.00;;
59306;SDS011;47983;53.016;-2.260;2023-02-15T00:56:52;66.25;;;26.98;;
59306;SDS011;47983;53.016;-2.260;2023-02-15T00:59:19;63.75;;;28.92;;
59306;SDS011;47983;53.016;-2.260;2023-02-15T01:01:47;66.82;;;28.42;;
59306;SDS011;47983;53.016;-2.260;2023-02-15T01:04:15;70.65;;;28.88;;
59306;SDS011;47983;53.016;-2.260;2023-02-15T01:06:42;65.30;;;28.25;;
59306;SDS011;47983;53.016;-2.260;2023-02-15T01:09:10;66.80;;;28.77;;
59306;SDS011;47983;53.016;-2.260;2023-02-15T01:11:39;66.40;;;27.80;;
59306;SDS011;47983;53.016;-2.260;2023-02-15T01:14:07;65.00;;;26.77;;
59306;SDS011;47983;53.016;-2.260;2023-02-15T01:16:38;63.05;;;27.92;;
59306;SDS011;47983;53.016;-2.260;2023-02-15T01:19:05;65.85;;;27.45;;
59306;SDS011;47983;53.016;-2.260;2023-02-15T01:21:33;68.30;;;27.85;;
59306;SDS011;47983;53.016;-2.260;2023-02-15T01:24:02;64.68;;;27.42;;
59306;SDS011;47983;53.016;-2.260;2023-02-15T01:26:30;68.82;;;29.45;;
59306;SDS011;47983;53.016;-2.260;2023-02-15T01:28:58;69.50;;;31.20;;
59306;SDS011;47983;53.016;-2.260;2023-02-15T01:31:25;84.68;;;33.35;;
59306;SDS011;47983;53.016;-2.260;2023-02-15T01:33:53;90.45;;;34.10;;
59306;SDS011;47983;53.016;-2.260;2023-02-15T01:36:21;100.65;;;37.65;;
59306;SDS011;47983;53.016;-2.260;2023-02-15T01:38:51;100.68;;;37.22;;
59306;SDS011;47983;53.016;-2.260;2023-02-15T01:41:19;97.47;;;35.63;;
59306;SDS011;47983;53.016;-2.260;2023-02-15T01:43:47;88.28;;;35.53;;
59306;SDS011;47983;53.016;-2.260;2023-02-15T01:46:19;87.82;;;35.17;;
59306;SDS011;47983;53.016;-2.260;2023-02-15T01:48:54;97.43;;;35.97;;
59306;SDS011;47983;53.016;-2.260;2023-02-15T01:51:31;87.43;;;34.20;;
59306;SDS011;47983;53.016;-2.260;2023-02-15T01:54:05;90.22;;;33.72;;
59306;SDS011;47983;53.016;-2.260;2023-02-15T01:56:43;88.07;;;32.72;;
59306;SDS011;47983;53.016;-2.260;2023-02-15T01:59:14;88.28;;;32.80;;
59306;SDS011;47983;53.016;-2.260;2023-02-15T02:01:50;88.70;;;34.38;;
59306;SDS011;47983;53.016;-2.260;2023-02-15T02:07:06;78.72;;;31.25;;
59306;SDS011;47983;53.016;-2.260;2023-02-15T02:09:37;85.63;;;32.85;;
59306;SDS011;47983;53.016;-2.260;2023-02-15T02:12:05;86.68;;;32.70;;
59306;SDS011;47983;53.016;-2.260;2023-02-15T02:14:34;83.75;;;32.17;;
59306;SDS011;47983;53.016;-2.260;2023-02-15T02:22:46;76.25;;;31.08;;
59306;SDS011;47983;53.016;-2.260;2023-02-15T02:34:35;79.45;;;30.38;;
59306;SDS011;47983;53.016;-2.260;2023-02-15T02:37:24;84.25;;;32.92;;
59306;SDS011;47983;53.016;-2.260;2023-02-15T02:39:57;81.00;;;34.35;;
59306;SDS011;47983;53.016;-2.260;2023-02-15T02:42:37;85.00;;;32.35;;
59306;SDS011;47983;53.016;-2.260;2023-02-15T02:45:09;83.35;;;34.40;;
59306;SDS011;47983;53.016;-2.260;2023-02-15T02:50:51;86.78;;;32.75;;
59306;SDS011;47983;53.016;-2.260;2023-02-15T02:53:19;82.95;;;31.40;;
59306;SDS011;47983;53.016;-2.260;2023-02-15T02:55:47;81.22;;;32.33;;
59306;SDS011;47983;53.016;-2.260;2023-02-15T02:58:46;75.13;;;29.35;;
59306;SDS011;47983;53.016;-2.260;2023-02-15T03:01:17;72.07;;;30.30;;
59306;SDS011;47983;53.016;-2.260;2023-02-15T03:03:57;77.03;;;31.77;;
59306;SDS011;47983;53.016;-2.260;2023-02-15T03:09:21;83.60;;;30.80;;
59306;SDS011;47983;53.016;-2.260;2023-02-15T03:12:13;83.05;;;30.23;;
59306;SDS011;47983;53.016;-2.260;2023-02-15T03:14:50;62.25;;;27.33;;
59306;SDS011;47983;53.016;-2.260;2023-02-15T03:17:20;54.88;;;25.10;;
59306;SDS011;47983;53.016;-2.260;2023-02-15T03:19:52;62.00;;;27.60;;
59306;SDS011;47983;53.016;-2.260;2023-02-15T03:22:25;61.95;;;25.63;;
59306;SDS011;47983;53.016;-2.260;2023-02-15T03:24:57;61.78;;;25.65;;
59306;SDS011;47983;53.016;-2.260;2023-02-15T03:27:38;62.92;;;26.30;;
59306;SDS011;47983;53.016;-2.260;2023-02-15T03:30:12;67.55;;;28.08;;
59306;SDS011;47983;53.016;-2.260;2023-02-15T03:32:42;73.45;;;29.30;;
59306;SDS011;47983;53.016;-2.260;2023-02-15T03:35:10;62.40;;;25.77;;
59306;SDS011;47983;53.016;-2.260;2023-02-15T03:37:40;59.03;;;24.88;;
59306;SDS011;47983;53.016;-2.260;2023-02-15T03:40:23;59.35;;;26.20;;
59306;SDS011;47983;53.016;-2.260;2023-02-15T03:43:22;62.95;;;25.20;;
59306;SDS011;47983;53.016;-2.260;2023-02-15T03:46:00;67.10;;;27.15;;
59306;SDS011;47983;53.016;-2.260;2023-02-15T03:48:43;79.25;;;30.55;;
59306;SDS011;47983;53.016;-2.260;2023-02-15T03:51:20;74.15;;;29.15;;
59306;SDS011;47983;53.016;-2.260;2023-02-15T03:57:06;66.50;;;28.73;;
59306;SDS011;47983;53.016;-2.260;2023-02-15T03:59:55;70.05;;;30.05;;
59306;SDS011;47983;53.016;-2.260;2023-02-15T04:02:52;86.75;;;32.47;;
59306;SDS011;47983;53.016;-2.260;2023-02-15T04:05:31;70.90;;;29.58;;
59306;SDS011;47983;53.016;-2.260;2023-02-15T04:07:59;83.55;;;31.20;;
59306;SDS011;47983;53.016;-2.260;2023-02-15T04:10:27;83.97;;;32.50;;
59306;SDS011;47983;53.016;-2.260;2023-02-15T04:13:13;88.03;;;33.53;;
59306;SDS011;47983;53.016;-2.260;2023-02-15T04:15:40;90.75;;;35.33;;
59306;SDS011;47983;53.016;-2.260;2023-02-15T04:18:27;91.75;;;33.80;;
59306;SDS011;47983;53.016;-2.260;2023-02-15T04:21:15;85.43;;;33.10;;
59306;SDS011;47983;53.016;-2.260;2023-02-15T04:24:01;86.72;;;34.75;;
59306;SDS011;47983;53.016;-2.260;2023-02-15T04:26:47;91.95;;;34.17;;
59306;SDS011;47983;53.016;-2.260;2023-02-15T04:29:15;96.55;;;37.33;;
59306;SDS011;47983;53.016;-2.260;2023-02-15T04:31:42;89.70;;;35.85;;
59306;SDS011;47983;53.016;-2.260;2023-02-15T04:34:10;87.75;;;36.38;;
59306;SDS011;47983;53.016;-2.260;2023-02-15T04:36:38;89.57;;;35.22;;
59306;SDS011;47983;53.016;-2.260;2023-02-15T04:39:06;94.78;;;34.50;;
59306;SDS011;47983;53.016;-2.260;2023-02-15T04:41:34;90.00;;;34.28;;
59306;SDS011;47983;53.016;-2.260;2023-02-15T04:44:02;95.57;;;35.28;;
59306;SDS011;47983;53.016;-2.260;2023-02-15T04:46:30;88.63;;;33.55;;
59306;SDS011;47983;53.016;-2.260;2023-02-15T04:48:58;101.80;;;36.03;;
59306;SDS011;47983;53.016;-2.260;2023-02-15T04:51:25;90.53;;;33.17;;
59306;SDS011;47983;53.016;-2.260;2023-02-15T04:53:53;79.32;;;32.80;;
59306;SDS011;47983;53.016;-2.260;2023-02-15T04:56:21;91.78;;;34.33;;
59306;SDS011;47983;53.016;-2.260;2023-02-15T04:58:49;90.88;;;34.30;;
59306;SDS011;47983;53.016;-2.260;2023-02-15T05:01:16;92.35;;;34.63;;
59306;SDS011;47983;53.016;-2.260;2023-02-15T05:03:44;70.70;;;28.35;;
59306;SDS011;47983;53.016;-2.260;2023-02-15T05:06:12;78.90;;;32.60;;
59306;SDS011;47983;53.016;-2.260;2023-02-15T05:08:39;74.75;;;31.65;;
59306;SDS011;47983;53.016;-2.260;2023-02-15T05:11:07;80.88;;;30.98;;
59306;SDS011;47983;53.016;-2.260;2023-02-15T05:13:34;84.32;;;32.10;;
59306;SDS011;47983;53.016;-2.260;2023-02-15T05:16:02;74.85;;;31.27;;
59306;SDS011;47983;53.016;-2.260;2023-02-15T05:18:30;83.10;;;32.13;;
59306;SDS011;47983;53.016;-2.260;2023-02-15T05:20:58;91.28;;;32.50;;
59306;SDS011;47983;53.016;-2.260;2023-02-15T05:23:25;85.25;;;32.08;;
59306;SDS011;47983;53.016;-2.260;2023-02-15T05:25:53;78.40;;;29.63;;
59306;SDS011;47983;53.016;-2.260;2023-02-15T05:28:39;85.78;;;31.23;;
59306;SDS011;47983;53.016;-2.260;2023-02-15T05:33:37;81.90;;;30.98;;
59306;SDS011;47983;53.016;-2.260;2023-02-15T05:36:05;76.65;;;29.67;;
59306;SDS011;47983;53.016;-2.260;2023-02-15T05:38:33;75.03;;;30.27;;
59306;SDS011;47983;53.016;-2.260;2023-02-15T05:41:01;70.10;;;29.00;;
59306;SDS011;47983;53.016;-2.260;2023-02-15T05:43:29;83.53;;;33.72;;
59306;SDS011;47983;53.016;-2.260;2023-02-15T05:45:57;88.10;;;31.88;;
59306;SDS011;47983;53.016;-2.260;2023-02-15T05:48:25;71.47;;;29.33;;
59306;SDS011;47983;53.016;-2.260;2023-02-15T05:51:00;79.00;;;30.00;;
59306;SDS011;47983;53.016;-2.260;2023-02-15T05:53:32;66.00;;;27.45;;
59306;SDS011;47983;53.016;-2.260;2023-02-15T05:56:01;71.35;;;31.10;;
59306;SDS011;47983;53.016;-2.260;2023-02-15T05:58:31;72.53;;;30.93;;
59306;SDS011;47983;53.016;-2.260;2023-02-15T06:01:07;72.85;;;29.55;;
59306;SDS011;47983;53.016;-2.260;2023-02-15T06:03:36;73.28;;;30.55;;
59306;SDS011;47983;53.016;-2.260;2023-02-15T06:06:04;76.32;;;30.80;;
59306;SDS011;47983;53.016;-2.260;2023-02-15T06:08:32;83.15;;;32.45;;
59306;SDS011;47983;53.016;-2.260;2023-02-15T06:11:01;69.97;;;29.75;;
59306;SDS011;47983;53.016;-2.260;2023-02-15T06:13:29;72.78;;;29.00;;
59306;SDS011;47983;53.016;-2.260;2023-02-15T06:15:56;67.88;;;29.60;;
59306;SDS011;47983;53.016;-2.260;2023-02-15T06:18:24;76.15;;;29.17;;
59306;SDS011;47983;53.016;-2.260;2023-02-15T06:20:52;72.85;;;31.15;;
59306;SDS011;47983;53.016;-2.260;2023-02-15T06:23:20;76.97;;;33.03;;
59306;SDS011;47983;53.016;-2.260;2023-02-15T06:25:47;74.70;;;31.73;;
59306;SDS011;47983;53.016;-2.260;2023-02-15T06:28:15;80.03;;;31.83;;
59306;SDS011;47983;53.016;-2.260;2023-02-15T06:30:43;84.50;;;31.13;;
59306;SDS011;47983;53.016;-2.260;2023-02-15T06:33:10;76.88;;;30.85;;
59306;SDS011;47983;53.016;-2.260;2023-02-15T06:35:38;73.80;;;32.30;;
59306;SDS011;47983;53.016;-2.260;2023-02-15T06:38:06;85.88;;;33.42;;
59306;SDS011;47983;53.016;-2.260;2023-02-15T06:40:35;75.43;;;33.80;;
59306;SDS011;47983;53.016;-2.260;2023-02-15T06:43:03;75.65;;;32.95;;
59306;SDS011;47983;53.016;-2.260;2023-02-15T06:45:31;78.93;;;30.88;;
59306;SDS011;47983;53.016;-2.260;2023-02-15T06:47:58;77.97;;;32.28;;
59306;SDS011;47983;53.016;-2.260;2023-02-15T06:50:26;72.25;;;30.38;;
59306;SDS011;47983;53.016;-2.260;2023-02-15T06:52:56;77.90;;;31.52;;
59306;SDS011;47983;53.016;-2.260;2023-02-15T06:55:25;81.88;;;32.47;;
59306;SDS011;47983;53.016;-2.260;2023-02-15T06:57:53;72.30;;;32.10;;
59306;SDS011;47983;53.016;-2.260;2023-02-15T07:00:20;74.53;;;30.60;;
59306;SDS011;47983;53.016;-2.260;2023-02-15T07:02:53;71.43;;;30.10;;
59306;SDS011;47983;53.016;-2.260;2023-02-15T07:05:25;74.43;;;30.17;;
59306;SDS011;47983;53.016;-2.260;2023-02-15T07:07:58;77.97;;;30.05;;
59306;SDS011;47983;53.016;-2.260;2023-02-15T07:10:27;75.63;;;32.40;;
59306;SDS011;47983;53.016;-2.260;2023-02-15T07:12:55;70.60;;;30.25;;
59306;SDS011;47983;53.016;-2.260;2023-02-15T07:15:23;70.75;;;30.73;;
59306;SDS011;47983;53.016;-2.260;2023-02-15T07:17:51;72.43;;;31.83;;
59306;SDS011;47983;53.016;-2.260;2023-02-15T07:20:20;78.22;;;33.17;;
59306;SDS011;47983;53.016;-2.260;2023-02-15T07:22:49;73.68;;;32.50;;
59306;SDS011;47983;53.016;-2.260;2023-02-15T07:25:17;78.75;;;33.40;;
59306;SDS011;47983;53.016;-2.260;2023-02-15T07:27:45;81.68;;;33.28;;
59306;SDS011;47983;53.016;-2.260;2023-02-15T07:30:14;78.88;;;31.63;;
59306;SDS011;47983;53.016;-2.260;2023-02-15T07:32:43;84.90;;;33.53;;
59306;SDS011;47983;53.016;-2.260;2023-02-15T07:35:32;73.10;;;30.90;;
59306;SDS011;47983;53.016;-2.260;2023-02-15T07:38:00;84.27;;;32.80;;
59306;SDS011;47983;53.016;-2.260;2023-02-15T07:40:28;75.88;;;30.95;;
59306;SDS011;47983;53.016;-2.260;2023-02-15T07:42:57;81.57;;;31.73;;
59306;SDS011;47983;53.016;-2.260;2023-02-15T07:45:26;78.18;;;33.03;;
59306;SDS011;47983;53.016;-2.260;2023-02-15T07:47:54;84.95;;;34.30;;
59306;SDS011;47983;53.016;-2.260;2023-02-15T07:50:22;83.70;;;32.83;;
59306;SDS011;47983;53.016;-2.260;2023-02-15T07:52:49;77.00;;;31.50;;
59306;SDS011;47983;53.016;-2.260;2023-02-15T07:55:17;70.15;;;31.30;;
59306;SDS011;47983;53.016;-2.260;2023-02-15T07:57:46;79.55;;;33.47;;
59306;SDS011;47983;53.016;-2.260;2023-02-15T08:00:17;79.47;;;32.17;;
59306;SDS011;47983;53.016;-2.260;2023-02-15T08:02:47;87.50;;;36.60;;
59306;SDS011;47983;53.016;-2.260;2023-02-15T08:05:36;88.90;;;34.85;;
59306;SDS011;47983;53.016;-2.260;2023-02-15T08:08:04;91.53;;;36.47;;
59306;SDS011;47983;53.016;-2.260;2023-02-15T08:10:32;100.47;;;37.67;;
59306;SDS011;47983;53.016;-2.260;2023-02-15T08:13:19;102.82;;;40.35;;
59306;SDS011;47983;53.016;-2.260;2023-02-15T08:15:47;105.53;;;38.30;;
59306;SDS011;47983;53.016;-2.260;2023-02-15T08:18:16;97.60;;;37.65;;
59306;SDS011;47983;53.016;-2.260;2023-02-15T08:20:53;88.25;;;35.42;;
59306;SDS011;47983;53.016;-2.260;2023-02-15T08:23:21;97.20;;;38.30;;
59306;SDS011;47983;53.016;-2.260;2023-02-15T08:25:48;84.63;;;36.67;;
59306;SDS011;47983;53.016;-2.260;2023-02-15T08:28:16;98.13;;;39.47;;
59306;SDS011;47983;53.016;-2.260;2023-02-15T08:30:44;91.28;;;37.78;;
59306;SDS011;47983;53.016;-2.260;2023-02-15T08:33:11;92.20;;;38.08;;
59306;SDS011;47983;53.016;-2.260;2023-02-15T08:35:39;95.10;;;38.20;;
59306;SDS011;47983;53.016;-2.260;2023-02-15T08:38:06;96.68;;;38.15;;
59306;SDS011;47983;53.016;-2.260;2023-02-15T08:40:34;80.50;;;33.90;;
59306;SDS011;47983;53.016;-2.260;2023-02-15T08:43:02;99.47;;;38.53;;
59306;SDS011;47983;53.016;-2.260;2023-02-15T08:45:29;96.97;;;34.88;;
59306;SDS011;47983;53.016;-2.260;2023-02-15T08:47:57;86.78;;;37.03;;
59306;SDS011;47983;53.016;-2.260;2023-02-15T08:50:25;92.35;;;34.10;;
59306;SDS011;47983;53.016;-2.260;2023-02-15T08:52:52;88.00;;;38.00;;
59306;SDS011;47983;53.016;-2.260;2023-02-15T08:55:22;86.03;;;35.47;;
59306;SDS011;47983;53.016;-2.260;2023-02-15T08:57:50;88.15;;;38.65;;
59306;SDS011;47983;53.016;-2.260;2023-02-15T09:00:17;91.28;;;35.60;;
59306;SDS011;47983;53.016;-2.260;2023-02-15T09:02:46;79.63;;;35.97;;
59306;SDS011;47983;53.016;-2.260;2023-02-15T09:05:14;79.00;;;33.88;;
59306;SDS011;47983;53.016;-2.260;2023-02-15T09:07:41;78.88;;;35.13;;
59306;SDS011;47983;53.016;-2.260;2023-02-15T09:10:09;83.30;;;36.40;;
59306;SDS011;47983;53.016;-2.260;2023-02-15T09:12:37;83.82;;;36.15;;
59306;SDS011;47983;53.016;-2.260;2023-02-15T09:15:04;82.18;;;34.45;;
59306;SDS011;47983;53.016;-2.260;2023-02-15T09:17:33;65.30;;;30.85;;
59306;SDS011;47983;53.016;-2.260;2023-02-15T09:20:00;77.57;;;33.42;;
59306;SDS011;47983;53.016;-2.260;2023-02-15T09:22:28;78.63;;;34.08;;
59306;SDS011;47983;53.016;-2.260;2023-02-15T09:24:58;86.05;;;37.08;;
59306;SDS011;47983;53.016;-2.260;2023-02-15T09:27:25;78.88;;;32.80;;
59306;SDS011;47983;53.016;-2.260;2023-02-15T09:29:53;78.90;;;33.85;;
59306;SDS011;47983;53.016;-2.260;2023-02-15T09:32:20;78.97;;;35.55;;
59306;SDS011;47983;53.016;-2.260;2023-02-15T09:34:48;88.47;;;36.58;;
59306;SDS011;47983;53.016;-2.260;2023-02-15T09:37:16;73.30;;;31.90;;
59306;SDS011;47983;53.016;-2.260;2023-02-15T09:39:44;72.63;;;32.00;;
59306;SDS011;47983;53.016;-2.260;2023-02-15T09:50:03;81.15;;;34.00;;
59306;SDS011;47983;53.016;-2.260;2023-02-15T09:56:14;72.15;;;30.33;;
59306;SDS011;47983;53.016;-2.260;2023-02-15T10:07:01;64.43;;;29.92;;
59306;SDS011;47983;53.016;-2.260;2023-02-15T10:15:21;64.18;;;28.48;;
59306;SDS011;47983;53.016;-2.260;2023-02-15T10:20:44;60.75;;;28.60;;
59306;SDS011;47983;53.016;-2.260;2023-02-15T10:26:28;68.93;;;28.20;;
59306;SDS011;47983;53.016;-2.260;2023-02-15T10:34:52;55.28;;;27.55;;
59306;SDS011;47983;53.016;-2.260;2023-02-15T10:48:46;47.05;;;24.20;;
59306;SDS011;47983;53.016;-2.260;2023-02-15T10:51:44;49.10;;;24.75;;
59306;SDS011;47983;53.016;-2.260;2023-02-15T11:03:05;49.45;;;23.63;;
59306;SDS011;47983;53.016;-2.260;2023-02-15T11:05:54;44.45;;;23.17;;
59306;SDS011;47983;53.016;-2.260;2023-02-15T11:08:40;40.45;;;19.98;;
59306;SDS011;47983;53.016;-2.260;2023-02-15T11:11:15;46.58;;;21.35;;
59306;SDS011;47983;53.016;-2.260;2023-02-15T11:13:53;47.22;;;22.13;;
59306;SDS011;47983;53.016;-2.260;2023-02-15T11:16:28;51.40;;;22.05;;
59306;SDS011;47983;53.016;-2.260;2023-02-15T11:19:01;44.40;;;20.33;;
59306;SDS011;47983;53.016;-2.260;2023-02-15T11:21:37;46.03;;;20.35;;
59306;SDS011;47983;53.016;-2.260;2023-02-15T11:24:15;41.92;;;19.50;;
59306;SDS011;47983;53.016;-2.260;2023-02-15T11:26:54;46.10;;;21.80;;
59306;SDS011;47983;53.016;-2.260;2023-02-15T11:29:40;41.72;;;18.50;;
59306;SDS011;47983;53.016;-2.260;2023-02-15T11:37:46;36.80;;;19.88;;
59306;SDS011;47983;53.016;-2.260;2023-02-15T11:40:17;46.13;;;20.77;;
59306;SDS011;47983;53.016;-2.260;2023-02-15T11:42:55;38.75;;;19.15;;
59306;SDS011;47983;53.016;-2.260;2023-02-15T11:45:29;40.42;;;19.73;;
59306;SDS011;47983;53.016;-2.260;2023-02-15T11:47:58;37.00;;;18.55;;
59306;SDS011;47983;53.016;-2.260;2023-02-15T11:50:27;43.03;;;18.25;;
59306;SDS011;47983;53.016;-2.260;2023-02-15T11:52:58;46.22;;;19.60;;
59306;SDS011;47983;53.016;-2.260;2023-02-15T11:55:33;45.50;;;21.60;;
59306;SDS011;47983;53.016;-2.260;2023-02-15T12:00:54;39.67;;;20.13;;
59306;SDS011;47983;53.016;-2.260;2023-02-15T12:03:43;44.28;;;21.30;;
59306;SDS011;47983;53.016;-2.260;2023-02-15T12:06:37;39.75;;;19.30;;
59306;SDS011;47983;53.016;-2.260;2023-02-15T12:11:40;47.97;;;20.60;;
59306;SDS011;47983;53.016;-2.260;2023-02-15T12:14:09;46.78;;;22.33;;
59306;SDS011;47983;53.016;-2.260;2023-02-15T12:16:45;45.38;;;21.60;;
59306;SDS011;47983;53.016;-2.260;2023-02-15T12:22:00;49.13;;;22.50;;
59306;SDS011;47983;53.016;-2.260;2023-02-15T12:24:32;44.35;;;19.98;;
59306;SDS011;47983;53.016;-2.260;2023-02-15T12:29:46;43.95;;;20.75;;
59306;SDS011;47983;53.016;-2.260;2023-02-15T12:32:19;44.35;;;21.60;;
59306;SDS011;47983;53.016;-2.260;2023-02-15T12:35:13;43.60;;;21.63;;
59306;SDS011;47983;53.016;-2.260;2023-02-15T12:37:55;42.90;;;21.40;;
59306;SDS011;47983;53.016;-2.260;2023-02-15T12:40:32;47.90;;;21.45;;
59306;SDS011;47983;53.016;-2.260;2023-02-15T12:43:01;42.45;;;20.55;;
59306;SDS011;47983;53.016;-2.260;2023-02-15T12:45:36;40.45;;;19.63;;
59306;SDS011;47983;53.016;-2.260;2023-02-15T12:50:49;43.95;;;20.23;;
59306;SDS011;47983;53.016;-2.260;2023-02-15T12:56:00;40.17;;;19.48;;
59306;SDS011;47983;53.016;-2.260;2023-02-15T12:58:30;36.90;;;18.35;;
59306;SDS011;47983;53.016;-2.260;2023-02-15T13:03:37;48.70;;;19.27;;
59306;SDS011;47983;53.016;-2.260;2023-02-15T13:06:17;37.65;;;17.75;;
59306;SDS011;47983;53.016;-2.260;2023-02-15T13:08:46;35.97;;;17.33;;
59306;SDS011;47983;53.016;-2.260;2023-02-15T13:11:27;44.28;;;18.15;;
59306;SDS011;47983;53.016;-2.260;2023-02-15T13:14:02;39.35;;;17.42;;
59306;SDS011;47983;53.016;-2.260;2023-02-15T13:16:44;38.00;;;17.60;;
59306;SDS011;47983;53.016;-2.260;2023-02-15T13:19:17;47.10;;;18.70;;
59306;SDS011;47983;53.016;-2.260;2023-02-15T13:21:51;47.10;;;19.85;;
59306;SDS011;47983;53.016;-2.260;2023-02-15T13:24:22;37.88;;;19.20;;
59306;SDS011;47983;53.016;-2.260;2023-02-15T13:26:54;36.63;;;18.38;;
59306;SDS011;47983;53.016;-2.260;2023-02-15T13:29:41;46.13;;;19.05;;
59306;SDS011;47983;53.016;-2.260;2023-02-15T13:34:53;39.33;;;18.67;;
59306;SDS011;47983;53.016;-2.260;2023-02-15T13:37:46;33.63;;;16.83;;
59306;SDS011;47983;53.016;-2.260;2023-02-15T13:40:44;44.33;;;18.75;;
59306;SDS011;47983;53.016;-2.260;2023-02-15T13:45:56;34.90;;;16.42;;
59306;SDS011;47983;53.016;-2.260;2023-02-15T13:51:43;35.90;;;16.15;;
59306;SDS011;47983;53.016;-2.260;2023-02-15T13:54:47;34.30;;;16.23;;
59306;SDS011;47983;53.016;-2.260;2023-02-15T13:57:33;38.13;;;15.82;;
59306;SDS011;47983;53.016;-2.260;2023-02-15T14:03:03;27.23;;;14.10;;
59306;SDS011;47983;53.016;-2.260;2023-02-15T14:16:37;29.42;;;14.18;;
59306;SDS011;47983;53.016;-2.260;2023-02-15T14:22:26;28.75;;;13.88;;
59306;SDS011;47983;53.016;-2.260;2023-02-15T14:25:05;30.10;;;13.23;;
59306;SDS011;47983;53.016;-2.260;2023-02-15T14:28:00;29.35;;;12.80;;
59306;SDS011;47983;53.016;-2.260;2023-02-15T14:30:34;25.83;;;12.68;;
59306;SDS011;47983;53.016;-2.260;2023-02-15T14:35:51;27.42;;;12.98;;
59306;SDS011;47983;53.016;-2.260;2023-02-15T14:38:32;29.13;;;13.20;;
59306;SDS011;47983;53.016;-2.260;2023-02-15T14:49:27;24.27;;;11.32;;
59306;SDS011;47983;53.016;-2.260;2023-02-15T14:52:02;20.33;;;9.85;;
59306;SDS011;47983;53.016;-2.260;2023-02-15T14:59:50;16.05;;;7.80;;
59306;SDS011;47983;53.016;-2.260;2023-02-15T15:02:40;18.48;;;7.88;;
59306;SDS011;47983;53.016;-2.260;2023-02-15T15:05:34;18.02;;;8.02;;
59306;SDS011;47983;53.016;-2.260;2023-02-15T15:08:03;14.20;;;7.68;;
59306;SDS011;47983;53.016;-2.260;2023-02-15T15:10:37;16.02;;;7.85;;
59306;SDS011;47983;53.016;-2.260;2023-02-15T15:16:23;12.68;;;7.07;;
59306;SDS011;47983;53.016;-2.260;2023-02-15T15:18:59;5.85;;;3.83;;
59306;SDS011;47983;53.016;-2.260;2023-02-15T15:40:50;1.33;;;0.80;;
59306;SDS011;47983;53.016;-2.260;2023-02-15T15:46:32;2.20;;;0.98;;
59306;SDS011;47983;53.016;-2.260;2023-02-15T15:49:10;2.38;;;0.82;;
59306;SDS011;47983;53.016;-2.260;2023-02-15T15:51:42;2.20;;;0.77;;
59306;SDS011;47983;53.016;-2.260;2023-02-15T15:54:16;5.15;;;1.20;;
59306;SDS011;47983;53.016;-2.260;2023-02-15T15:57:05;3.28;;;1.48;;
59306;SDS011;47983;53.016;-2.260;2023-02-15T15:59:43;0.40;;;0.30;;
59306;SDS011;47983;53.016;-2.260;2023-02-15T16:02:15;0.45;;;0.40;;
59306;SDS011;47983;53.016;-2.260;2023-02-15T16:04:44;0.88;;;0.43;;
59306;SDS011;47983;53.016;-2.260;2023-02-15T16:09:57;1.65;;;0.20;;
59306;SDS011;47983;53.016;-2.260;2023-02-15T16:12:32;0.75;;;0.40;;
59306;SDS011;47983;53.016;-2.260;2023-02-15T16:15:15;1.60;;;0.95;;
59306;SDS011;47983;53.016;-2.260;2023-02-15T16:17:49;2.55;;;1.25;;
59306;SDS011;47983;53.016;-2.260;2023-02-15T16:20:23;2.58;;;0.80;;
59306;SDS011;47983;53.016;-2.260;2023-02-15T16:26:12;1.60;;;0.35;;
59306;SDS011;47983;53.016;-2.260;2023-02-15T16:28:58;1.02;;;0.38;;
59306;SDS011;47983;53.016;-2.260;2023-02-15T16:31:26;3.85;;;0.90;;
59306;SDS011;47983;53.016;-2.260;2023-02-15T16:33:54;0.40;;;0.40;;
59306;SDS011;47983;53.016;-2.260;2023-02-15T16:36:26;1.80;;;0.50;;
59306;SDS011;47983;53.016;-2.260;2023-02-15T16:41:29;0.63;;;0.50;;
59306;SDS011;47983;53.016;-2.260;2023-02-15T16:43:58;1.83;;;0.70;;
59306;SDS011;47983;53.016;-2.260;2023-02-15T16:46:31;5.43;;;0.63;;
59306;SDS011;47983;53.016;-2.260;2023-02-15T16:49:04;1.60;;;0.50;;
59306;SDS011;47983;53.016;-2.260;2023-02-15T16:51:39;1.55;;;0.50;;
59306;SDS011;47983;53.016;-2.260;2023-02-15T16:54:15;1.60;;;0.70;;
59306;SDS011;47983;53.016;-2.260;2023-02-15T16:56:45;3.80;;;0.57;;
59306;SDS011;47983;53.016;-2.260;2023-02-15T17:02:24;2.35;;;0.80;;
59306;SDS011;47983;53.016;-2.260;2023-02-15T17:05:16;2.85;;;0.68;;
59306;SDS011;47983;53.016;-2.260;2023-02-15T17:07:51;1.77;;;0.70;;
59306;SDS011;47983;53.016;-2.260;2023-02-15T17:10:38;3.67;;;0.50;;
59306;SDS011;47983;53.016;-2.260;2023-02-15T17:13:13;0.52;;;0.52;;
59306;SDS011;47983;53.016;-2.260;2023-02-15T17:15:42;3.00;;;0.73;;
59306;SDS011;47983;53.016;-2.260;2023-02-15T17:21:20;1.02;;;0.63;;
59306;SDS011;47983;53.016;-2.260;2023-02-15T17:23:52;1.95;;;1.30;;
59306;SDS011;47983;53.016;-2.260;2023-02-15T17:26:29;6.65;;;0.73;;
59306;SDS011;47983;53.016;-2.260;2023-02-15T17:31:46;3.20;;;0.70;;
59306;SDS011;47983;53.016;-2.260;2023-02-15T17:37:10;4.28;;;1.00;;
59306;SDS011;47983;53.016;-2.260;2023-02-15T17:39:40;3.85;;;1.10;;
59306;SDS011;47983;53.016;-2.260;2023-02-15T17:42:08;2.45;;;1.00;;
59306;SDS011;47983;53.016;-2.260;2023-02-15T17:44:35;4.75;;;1.10;;
59306;SDS011;47983;53.016;-2.260;2023-02-15T17:47:03;8.07;;;1.45;;
59306;SDS011;47983;53.016;-2.260;2023-02-15T17:49:31;1.60;;;0.80;;
59306;SDS011;47983;53.016;-2.260;2023-02-15T17:52:01;5.15;;;1.67;;
59306;SDS011;47983;53.016;-2.260;2023-02-15T17:54:29;5.65;;;1.40;;
59306;SDS011;47983;53.016;-2.260;2023-02-15T17:57:15;14.68;;;2.20;;
59306;SDS011;47983;53.016;-2.260;2023-02-15T17:59:43;8.35;;;2.05;;
59306;SDS011;47983;53.016;-2.260;2023-02-15T18:02:38;14.30;;;4.82;;